Lewisville, North Carolina
Current Conditions -  °F | °C
As of 10:54 AM on Sunday 21 Dec 2014 (Local Time) from KINT Reporting Station
Overcast Overcast  
Wind Chill: 43°   Ceiling: 2100
Heat Index: 43°   Visibility: 7mi
Dew Point: 34°   Wind: 3mph
Humidity: 71%   Direction: 80°E
Pressure: 30.3"   Gusts: NA
Location:  36.1°N, 80.42°W
Report Text: KINT 211554Z 08003KT 7SM BKN021 OVC049 06/01 A3030 RMK AO2 SLP263 T00610011
Loading
Personal Weather Stations






























Interactive Weather Map New forecast layout! Learn more

10-Day Weather Forecast

Advertisements
Track Severe Weather on mobile